createdAt,value
2023-04-02T08:50:54.064Z,6.32
2023-04-02T08:53:28.556Z,6.15
2023-04-02T08:56:05.491Z,6.10
2023-04-02T08:58:41.434Z,6.04
2023-04-02T09:01:23.842Z,6.21
2023-04-02T09:03:54.372Z,6.04
2023-04-02T09:06:22.075Z,5.94
2023-04-02T09:08:51.794Z,5.86
2023-04-02T09:11:18.128Z,5.84
2023-04-02T09:13:47.854Z,5.83
2023-04-02T09:16:18.297Z,6.01
2023-04-02T09:18:45.535Z,5.79
2023-04-02T09:21:21.011Z,5.88
2023-04-02T09:23:48.754Z,6.03
2023-04-02T09:26:27.602Z,5.93
2023-04-02T09:29:20.835Z,5.84
2023-04-02T09:31:55.476Z,5.91
2023-04-02T09:34:33.191Z,5.83
2023-04-02T09:37:16.261Z,5.96
2023-04-02T09:39:42.945Z,5.94
2023-04-02T09:42:31.438Z,5.75
2023-04-02T09:45:12.412Z,5.72
2023-04-02T09:47:42.308Z,5.63
2023-04-02T09:50:21.997Z,5.68
2023-04-02T09:52:49.726Z,5.63
2023-04-02T09:55:16.107Z,5.54
2023-04-02T09:57:43.003Z,5.63
2023-04-02T10:00:31.685Z,5.62
2023-04-02T10:03:06.806Z,5.53
2023-04-02T10:08:28.098Z,5.50
2023-04-02T10:10:57.937Z,5.44
2023-04-02T10:13:31.348Z,5.34
2023-04-02T10:16:09.472Z,5.32
2023-04-02T10:18:41.427Z,5.40
2023-04-02T10:21:12.667Z,5.45
2023-04-02T10:23:39.573Z,5.52
2023-04-02T10:26:21.944Z,5.50
2023-04-02T10:29:19.017Z,5.46
2023-04-02T10:32:00.380Z,5.48
2023-04-02T10:35:15.944Z,5.62
2023-04-02T10:38:09.552Z,5.75
2023-04-02T10:40:42.479Z,5.75
2023-04-02T10:43:41.066Z,5.80
2023-04-02T10:47:04.417Z,5.74
2023-04-02T10:50:17.720Z,5.65
2023-04-02T10:52:56.514Z,5.73
2023-04-02T10:55:30.977Z,5.61
2023-04-02T10:58:03.622Z,5.71
2023-04-02T11:00:37.106Z,5.74
2023-04-02T11:03:15.088Z,5.72
2023-04-02T11:05:50.801Z,5.74
2023-04-02T11:08:26.424Z,5.84
2023-04-02T11:11:20.122Z,5.94
2023-04-02T11:13:57.978Z,5.80
2023-04-02T11:16:25.411Z,5.76
2023-04-02T11:19:16.885Z,5.84
2023-04-02T11:21:58.580Z,5.91
2023-04-02T11:24:32.997Z,5.91
2023-04-02T11:27:11.395Z,5.95
2023-04-02T11:29:49.286Z,5.87
2023-04-02T11:32:34.733Z,5.82
2023-04-02T11:35:22.982Z,5.79
2023-04-02T11:37:49.586Z,5.84
2023-04-02T11:40:18.922Z,5.88
2023-04-02T11:42:50.936Z,5.93
2023-04-02T11:45:21.230Z,6.00
2023-04-02T11:48:00.557Z,5.87
2023-04-02T11:50:29.995Z,5.94
2023-04-02T11:53:02.005Z,5.86
2023-04-02T11:55:36.099Z,5.93
2023-04-02T11:58:30.959Z,5.88
2023-04-02T12:01:09.278Z,5.81
2023-04-02T12:04:11.422Z,5.78
2023-04-02T12:06:46.801Z,5.88
2023-04-02T12:09:23.539Z,5.98
2023-04-02T12:11:58.968Z,6.09
2023-04-02T12:14:51.742Z,6.00
2023-04-02T12:17:39.793Z,6.08
2023-04-02T12:20:09.660Z,6.06
2023-04-02T12:22:47.880Z,6.18
2023-04-02T12:25:33.903Z,6.22
2023-04-02T12:28:06.407Z,6.20
2023-04-02T12:30:33.996Z,6.18
2023-04-02T12:33:21.993Z,6.28
2023-04-02T12:35:53.282Z,6.36
2023-04-02T12:38:43.566Z,6.29
2023-04-02T12:41:27.356Z,6.28
2023-04-02T12:44:02.402Z,6.23
2023-04-02T12:46:31.524Z,6.05
2023-04-02T12:49:06.641Z,6.13
2023-04-02T12:51:36.192Z,6.04
2023-04-02T12:54:02.955Z,6.08
2023-04-02T12:56:29.308Z,6.01
2023-04-02T12:58:57.868Z,6.00
2023-04-02T13:01:29.354Z,5.85
2023-04-02T13:04:08.107Z,5.79
2023-04-02T13:06:36.234Z,5.79
2023-04-02T13:09:06.012Z,5.87
2023-04-02T13:11:38.087Z,5.82
2023-04-02T13:14:05.772Z,5.88
2023-04-02T13:16:38.192Z,5.81
2023-04-02T13:19:16.705Z,5.84
2023-04-02T13:21:43.890Z,5.93
2023-04-02T13:24:25.323Z,5.82
2023-04-02T13:26:55.770Z,5.71
2023-04-02T13:29:33.549Z,5.67
2023-04-02T13:32:02.294Z,5.52
2023-04-02T13:34:30.076Z,5.58
2023-04-02T13:36:57.413Z,5.44
2023-04-02T13:39:24.186Z,5.54
2023-04-02T13:42:02.731Z,5.44
2023-04-02T13:44:35.060Z,5.56
2023-04-02T13:47:01.740Z,5.60
2023-04-02T13:49:28.192Z,5.31
2023-04-02T13:51:58.703Z,5.54
2023-04-02T13:54:34.912Z,5.41
2023-04-02T13:57:01.443Z,5.43
2023-04-02T13:59:28.004Z,5.30
2023-04-02T14:01:59.295Z,5.43
2023-04-02T14:04:29.927Z,5.38
2023-04-02T14:07:30.025Z,5.23
2023-04-02T14:10:20.437Z,5.30
2023-04-02T14:13:15.284Z,5.45
2023-04-02T14:16:08.729Z,5.36
2023-04-02T14:18:36.631Z,5.46
2023-04-02T14:21:22.984Z,5.46
2023-04-02T14:24:05.633Z,5.28
2023-04-02T14:27:04.366Z,5.43
2023-04-02T14:29:43.791Z,5.33
2023-04-02T14:32:34.413Z,5.44
2023-04-02T14:35:13.043Z,5.31
2023-04-02T14:37:54.436Z,5.44
2023-04-02T14:40:28.503Z,5.36
2023-04-02T14:43:02.991Z,5.34
2023-04-02T14:45:55.043Z,5.39
2023-04-02T14:48:39.985Z,5.31
2023-04-02T14:51:14.438Z,5.11
2023-04-02T14:53:52.662Z,5.18
2023-04-02T14:56:21.728Z,5.23
2023-04-02T14:59:24.163Z,5.13
2023-04-02T15:01:56.613Z,5.03
2023-04-02T15:04:30.901Z,4.94
2023-04-02T15:07:05.444Z,4.92
2023-04-02T15:09:38.224Z,4.98
2023-04-02T15:12:28.680Z,5.00
2023-04-02T15:15:03.428Z,4.97
2023-04-02T15:17:31.004Z,5.04
2023-04-02T15:20:12.148Z,4.96
2023-04-02T15:22:47.577Z,5.01
2023-04-02T15:25:29.417Z,4.90
2023-04-02T15:28:07.352Z,4.95
2023-04-02T15:30:45.095Z,5.01
2023-04-02T15:33:28.215Z,5.02
2023-04-02T15:36:16.194Z,5.04
2023-04-02T15:38:54.520Z,5.09
2023-04-02T15:41:32.240Z,5.10
2023-04-02T15:44:09.776Z,5.17
2023-04-02T15:47:02.307Z,5.05
2023-04-02T15:50:04.281Z,5.06
2023-04-02T15:52:46.826Z,5.09
2023-04-02T15:55:27.870Z,5.09
2023-04-02T15:58:12.757Z,5.19
2023-04-02T16:01:02.141Z,5.16
2023-04-02T16:03:56.139Z,5.15
2023-04-02T16:06:34.521Z,5.20
2023-04-02T16:09:16.060Z,5.13
2023-04-02T16:11:42.698Z,5.15
2023-04-02T16:14:32.055Z,5.14
2023-04-02T16:17:10.850Z,5.15
2023-04-02T16:20:14.457Z,5.16
